sensor_id;sensor_type;location;lat;lon;timestamp;temperature;humidity
4354;DHT22;11018;51.258;6.806;2024-01-07T00:01:35;3.80;75.00
4354;DHT22;11018;51.258;6.806;2024-01-07T00:04:00;3.80;73.70
4354;DHT22;11018;51.258;6.806;2024-01-07T00:06:26;3.80;73.70
4354;DHT22;11018;51.258;6.806;2024-01-07T00:08:51;3.80;74.70
4354;DHT22;11018;51.258;6.806;2024-01-07T00:11:17;3.80;75.30
4354;DHT22;11018;51.258;6.806;2024-01-07T00:13:42;3.80;74.80
4354;DHT22;11018;51.258;6.806;2024-01-07T00:16:08;3.90;75.20
4354;DHT22;11018;51.258;6.806;2024-01-07T00:18:34;3.90;75.30
4354;DHT22;11018;51.258;6.806;2024-01-07T00:20:59;4.00;73.50
4354;DHT22;11018;51.258;6.806;2024-01-07T00:23:25;4.00;72.70
4354;DHT22;11018;51.258;6.806;2024-01-07T00:25:51;3.90;73.80
4354;DHT22;11018;51.258;6.806;2024-01-07T00:28:16;3.90;74.00
4354;DHT22;11018;51.258;6.806;2024-01-07T00:30:42;3.90;73.70
4354;DHT22;11018;51.258;6.806;2024-01-07T00:33:07;3.90;74.00
4354;DHT22;11018;51.258;6.806;2024-01-07T00:35:33;3.90;74.90
4354;DHT22;11018;51.258;6.806;2024-01-07T00:37:58;4.00;74.30
4354;DHT22;11018;51.258;6.806;2024-01-07T00:40:24;4.00;74.60
4354;DHT22;11018;51.258;6.806;2024-01-07T00:42:50;4.00;74.20
4354;DHT22;11018;51.258;6.806;2024-01-07T00:45:17;3.90;74.30
4354;DHT22;11018;51.258;6.806;2024-01-07T00:47:42;4.00;74.60
4354;DHT22;11018;51.258;6.806;2024-01-07T00:50:08;4.00;76.30
4354;DHT22;11018;51.258;6.806;2024-01-07T00:52:34;4.10;74.90
4354;DHT22;11018;51.258;6.806;2024-01-07T00:55:03;4.10;73.30
4354;DHT22;11018;51.258;6.806;2024-01-07T00:57:29;4.10;72.50
4354;DHT22;11018;51.258;6.806;2024-01-07T00:59:54;4.10;74.00
4354;DHT22;11018;51.258;6.806;2024-01-07T01:02:20;4.10;72.60
4354;DHT22;11018;51.258;6.806;2024-01-07T01:04:45;4.10;71.40
4354;DHT22;11018;51.258;6.806;2024-01-07T01:07:11;4.10;71.90
4354;DHT22;11018;51.258;6.806;2024-01-07T01:09:36;4.10;71.20
4354;DHT22;11018;51.258;6.806;2024-01-07T01:12:02;4.10;70.80
4354;DHT22;11018;51.258;6.806;2024-01-07T01:14:28;4.10;69.30
4354;DHT22;11018;51.258;6.806;2024-01-07T01:16:53;4.00;68.50
4354;DHT22;11018;51.258;6.806;2024-01-07T01:19:19;4.00;68.50
4354;DHT22;11018;51.258;6.806;2024-01-07T01:21:44;3.90;70.30
4354;DHT22;11018;51.258;6.806;2024-01-07T01:24:10;3.90;69.90
4354;DHT22;11018;51.258;6.806;2024-01-07T01:26:35;4.00;69.90
4354;DHT22;11018;51.258;6.806;2024-01-07T01:29:01;4.00;70.40
4354;DHT22;11018;51.258;6.806;2024-01-07T01:31:27;4.00;71.20
4354;DHT22;11018;51.258;6.806;2024-01-07T01:33:52;4.00;70.30
4354;DHT22;11018;51.258;6.806;2024-01-07T01:36:18;4.00;69.40
4354;DHT22;11018;51.258;6.806;2024-01-07T01:38:43;4.00;68.90
4354;DHT22;11018;51.258;6.806;2024-01-07T01:41:09;3.90;67.90
4354;DHT22;11018;51.258;6.806;2024-01-07T01:43:35;3.90;68.30
4354;DHT22;11018;51.258;6.806;2024-01-07T01:46:01;3.90;68.20
4354;DHT22;11018;51.258;6.806;2024-01-07T01:48:27;3.90;68.20
4354;DHT22;11018;51.258;6.806;2024-01-07T01:50:54;3.90;68.20
4354;DHT22;11018;51.258;6.806;2024-01-07T01:53:26;3.80;68.50
4354;DHT22;11018;51.258;6.806;2024-01-07T01:55:52;3.80;68.60
4354;DHT22;11018;51.258;6.806;2024-01-07T01:58:19;3.80;68.90
4354;DHT22;11018;51.258;6.806;2024-01-07T02:00:45;3.70;68.70
4354;DHT22;11018;51.258;6.806;2024-01-07T02:03:11;3.70;69.60
4354;DHT22;11018;51.258;6.806;2024-01-07T02:05:36;3.70;70.60
4354;DHT22;11018;51.258;6.806;2024-01-07T02:08:02;3.80;70.40
4354;DHT22;11018;51.258;6.806;2024-01-07T02:10:28;3.90;68.70
4354;DHT22;11018;51.258;6.806;2024-01-07T02:13:00;3.90;68.50
4354;DHT22;11018;51.258;6.806;2024-01-07T02:15:25;3.80;70.50
4354;DHT22;11018;51.258;6.806;2024-01-07T02:17:51;3.90;71.20
4354;DHT22;11018;51.258;6.806;2024-01-07T02:20:16;3.90;68.10
4354;DHT22;11018;51.258;6.806;2024-01-07T02:22:42;4.00;67.00
4354;DHT22;11018;51.258;6.806;2024-01-07T02:25:08;3.90;65.50
4354;DHT22;11018;51.258;6.806;2024-01-07T02:27:34;3.90;66.00
4354;DHT22;11018;51.258;6.806;2024-01-07T02:29:59;3.80;66.00
4354;DHT22;11018;51.258;6.806;2024-01-07T02:32:25;3.80;65.40
4354;DHT22;11018;51.258;6.806;2024-01-07T02:34:51;3.80;67.20
4354;DHT22;11018;51.258;6.806;2024-01-07T02:37:16;3.70;66.50
4354;DHT22;11018;51.258;6.806;2024-01-07T02:39:42;3.60;66.90
4354;DHT22;11018;51.258;6.806;2024-01-07T02:42:07;3.60;68.00
4354;DHT22;11018;51.258;6.806;2024-01-07T02:44:33;3.60;68.40
4354;DHT22;11018;51.258;6.806;2024-01-07T02:46:58;3.50;68.80
4354;DHT22;11018;51.258;6.806;2024-01-07T02:49:24;3.50;69.30
4354;DHT22;11018;51.258;6.806;2024-01-07T02:51:49;3.50;70.00
4354;DHT22;11018;51.258;6.806;2024-01-07T02:54:15;3.50;70.10
4354;DHT22;11018;51.258;6.806;2024-01-07T02:56:41;3.60;70.50
4354;DHT22;11018;51.258;6.806;2024-01-07T02:59:06;3.60;68.90
4354;DHT22;11018;51.258;6.806;2024-01-07T03:01:32;3.50;70.20
4354;DHT22;11018;51.258;6.806;2024-01-07T03:03:57;3.50;71.30
4354;DHT22;11018;51.258;6.806;2024-01-07T03:06:26;3.50;70.40
4354;DHT22;11018;51.258;6.806;2024-01-07T03:08:53;3.50;70.40
4354;DHT22;11018;51.258;6.806;2024-01-07T03:11:18;3.50;70.50
4354;DHT22;11018;51.258;6.806;2024-01-07T03:13:44;3.50;69.80
4354;DHT22;11018;51.258;6.806;2024-01-07T03:16:22;3.50;69.70
4354;DHT22;11018;51.258;6.806;2024-01-07T03:18:48;3.60;70.70
4354;DHT22;11018;51.258;6.806;2024-01-07T03:21:21;3.60;69.00
4354;DHT22;11018;51.258;6.806;2024-01-07T03:23:47;3.50;68.80
4354;DHT22;11018;51.258;6.806;2024-01-07T03:26:16;3.50;69.00
4354;DHT22;11018;51.258;6.806;2024-01-07T03:28:42;3.40;69.90
4354;DHT22;11018;51.258;6.806;2024-01-07T03:31:09;3.40;70.50
4354;DHT22;11018;51.258;6.806;2024-01-07T03:33:36;3.40;69.70
4354;DHT22;11018;51.258;6.806;2024-01-07T03:36:06;3.40;68.50
4354;DHT22;11018;51.258;6.806;2024-01-07T03:38:32;3.40;68.30
4354;DHT22;11018;51.258;6.806;2024-01-07T03:40:57;3.40;68.50
4354;DHT22;11018;51.258;6.806;2024-01-07T03:43:23;3.40;69.10
4354;DHT22;11018;51.258;6.806;2024-01-07T03:45:49;3.40;66.40
4354;DHT22;11018;51.258;6.806;2024-01-07T03:48:15;3.40;68.10
4354;DHT22;11018;51.258;6.806;2024-01-07T03:50:40;3.50;66.40
4354;DHT22;11018;51.258;6.806;2024-01-07T03:53:06;3.50;65.90
4354;DHT22;11018;51.258;6.806;2024-01-07T03:55:31;3.60;66.40
4354;DHT22;11018;51.258;6.806;2024-01-07T03:57:57;3.60;66.20
4354;DHT22;11018;51.258;6.806;2024-01-07T04:00:22;3.60;63.80
4354;DHT22;11018;51.258;6.806;2024-01-07T04:02:48;3.50;64.10
4354;DHT22;11018;51.258;6.806;2024-01-07T04:05:13;3.50;63.70
4354;DHT22;11018;51.258;6.806;2024-01-07T04:07:40;3.60;64.80
4354;DHT22;11018;51.258;6.806;2024-01-07T04:10:06;3.50;62.40
4354;DHT22;11018;51.258;6.806;2024-01-07T04:12:31;3.50;62.40
4354;DHT22;11018;51.258;6.806;2024-01-07T04:14:57;3.40;63.30
4354;DHT22;11018;51.258;6.806;2024-01-07T04:17:23;3.30;64.20
4354;DHT22;11018;51.258;6.806;2024-01-07T04:19:49;3.40;64.40
4354;DHT22;11018;51.258;6.806;2024-01-07T04:22:15;3.30;64.50
4354;DHT22;11018;51.258;6.806;2024-01-07T04:24:41;3.30;65.90
4354;DHT22;11018;51.258;6.806;2024-01-07T04:27:07;3.30;64.30
4354;DHT22;11018;51.258;6.806;2024-01-07T04:29:32;3.30;64.90
4354;DHT22;11018;51.258;6.806;2024-01-07T04:31:58;3.20;64.90
4354;DHT22;11018;51.258;6.806;2024-01-07T04:34:23;3.20;65.50
4354;DHT22;11018;51.258;6.806;2024-01-07T04:36:50;3.20;66.00
4354;DHT22;11018;51.258;6.806;2024-01-07T04:39:15;3.20;65.70
4354;DHT22;11018;51.258;6.806;2024-01-07T04:41:41;3.20;66.30
4354;DHT22;11018;51.258;6.806;2024-01-07T04:44:06;3.30;65.70
4354;DHT22;11018;51.258;6.806;2024-01-07T04:46:38;3.30;65.10
4354;DHT22;11018;51.258;6.806;2024-01-07T04:49:04;3.20;65.20
4354;DHT22;11018;51.258;6.806;2024-01-07T04:51:31;3.30;66.00
4354;DHT22;11018;51.258;6.806;2024-01-07T04:53:57;3.30;64.80
4354;DHT22;11018;51.258;6.806;2024-01-07T04:56:22;3.30;65.10
4354;DHT22;11018;51.258;6.806;2024-01-07T04:58:48;3.30;64.00
4354;DHT22;11018;51.258;6.806;2024-01-07T05:01:14;3.20;62.40
4354;DHT22;11018;51.258;6.806;2024-01-07T05:03:39;3.20;63.40
4354;DHT22;11018;51.258;6.806;2024-01-07T05:06:05;3.20;63.10
4354;DHT22;11018;51.258;6.806;2024-01-07T05:08:30;3.20;63.20
4354;DHT22;11018;51.258;6.806;2024-01-07T05:10:56;3.20;63.70
4354;DHT22;11018;51.258;6.806;2024-01-07T05:13:22;3.20;63.40
4354;DHT22;11018;51.258;6.806;2024-01-07T05:15:47;3.20;64.60
4354;DHT22;11018;51.258;6.806;2024-01-07T05:18:23;3.20;62.80
4354;DHT22;11018;51.258;6.806;2024-01-07T05:20:49;3.20;62.70
4354;DHT22;11018;51.258;6.806;2024-01-07T05:23:15;3.20;62.80
4354;DHT22;11018;51.258;6.806;2024-01-07T05:25:45;3.30;63.70
4354;DHT22;11018;51.258;6.806;2024-01-07T05:28:11;3.30;62.10
4354;DHT22;11018;51.258;6.806;2024-01-07T05:30:38;3.30;60.90
4354;DHT22;11018;51.258;6.806;2024-01-07T05:33:04;3.30;62.20
4354;DHT22;11018;51.258;6.806;2024-01-07T05:35:30;3.30;60.70
4354;DHT22;11018;51.258;6.806;2024-01-07T05:37:55;3.20;60.50
4354;DHT22;11018;51.258;6.806;2024-01-07T05:40:21;3.10;61.40
4354;DHT22;11018;51.258;6.806;2024-01-07T05:42:47;3.20;62.20
4354;DHT22;11018;51.258;6.806;2024-01-07T05:45:12;3.20;61.60
4354;DHT22;11018;51.258;6.806;2024-01-07T05:47:38;3.20;61.20
4354;DHT22;11018;51.258;6.806;2024-01-07T05:50:06;3.20;61.00
4354;DHT22;11018;51.258;6.806;2024-01-07T05:52:32;3.20;60.10
4354;DHT22;11018;51.258;6.806;2024-01-07T05:54:57;3.10;60.40
4354;DHT22;11018;51.258;6.806;2024-01-07T05:57:23;3.20;60.90
4354;DHT22;11018;51.258;6.806;2024-01-07T05:59:48;3.10;59.90
4354;DHT22;11018;51.258;6.806;2024-01-07T06:02:15;3.20;60.90
4354;DHT22;11018;51.258;6.806;2024-01-07T06:04:42;3.10;60.30
4354;DHT22;11018;51.258;6.806;2024-01-07T06:07:08;3.00;60.20
4354;DHT22;11018;51.258;6.806;2024-01-07T06:09:33;3.10;61.80
4354;DHT22;11018;51.258;6.806;2024-01-07T06:11:59;3.10;63.00
4354;DHT22;11018;51.258;6.806;2024-01-07T06:14:24;3.20;60.70
4354;DHT22;11018;51.258;6.806;2024-01-07T06:16:50;3.10;60.80
4354;DHT22;11018;51.258;6.806;2024-01-07T06:19:17;3.00;61.60
4354;DHT22;11018;51.258;6.806;2024-01-07T06:21:42;3.00;62.70
4354;DHT22;11018;51.258;6.806;2024-01-07T06:24:08;3.10;62.90
4354;DHT22;11018;51.258;6.806;2024-01-07T06:26:34;3.10;61.90
4354;DHT22;11018;51.258;6.806;2024-01-07T06:29:00;3.00;62.10
4354;DHT22;11018;51.258;6.806;2024-01-07T06:31:26;3.00;63.20
4354;DHT22;11018;51.258;6.806;2024-01-07T06:33:52;3.00;62.40
4354;DHT22;11018;51.258;6.806;2024-01-07T06:36:17;3.00;62.30
4354;DHT22;11018;51.258;6.806;2024-01-07T06:38:43;2.90;61.10
4354;DHT22;11018;51.258;6.806;2024-01-07T06:41:10;2.80;62.20
4354;DHT22;11018;51.258;6.806;2024-01-07T06:43:36;2.80;61.80
4354;DHT22;11018;51.258;6.806;2024-01-07T06:46:01;2.80;61.90
4354;DHT22;11018;51.258;6.806;2024-01-07T06:48:27;2.80;62.50
4354;DHT22;11018;51.258;6.806;2024-01-07T06:50:52;2.90;61.90
4354;DHT22;11018;51.258;6.806;2024-01-07T06:53:18;2.90;60.10
4354;DHT22;11018;51.258;6.806;2024-01-07T06:55:43;2.80;59.90
4354;DHT22;11018;51.258;6.806;2024-01-07T06:58:09;2.90;60.50
4354;DHT22;11018;51.258;6.806;2024-01-07T07:00:34;2.90;60.80
4354;DHT22;11018;51.258;6.806;2024-01-07T07:03:00;3.00;58.60
4354;DHT22;11018;51.258;6.806;2024-01-07T07:05:25;3.00;58.20
4354;DHT22;11018;51.258;6.806;2024-01-07T07:07:51;2.90;57.40
4354;DHT22;11018;51.258;6.806;2024-01-07T07:10:16;2.80;58.40
4354;DHT22;11018;51.258;6.806;2024-01-07T07:12:42;2.80;58.60
4354;DHT22;11018;51.258;6.806;2024-01-07T07:15:08;2.90;59.00
4354;DHT22;11018;51.258;6.806;2024-01-07T07:17:36;2.90;58.70
4354;DHT22;11018;51.258;6.806;2024-01-07T07:20:02;3.00;59.00
4354;DHT22;11018;51.258;6.806;2024-01-07T07:22:27;3.00;59.20
4354;DHT22;11018;51.258;6.806;2024-01-07T07:24:53;3.00;59.40
4354;DHT22;11018;51.258;6.806;2024-01-07T07:27:19;3.00;60.70
4354;DHT22;11018;51.258;6.806;2024-01-07T07:29:44;3.10;59.70
4354;DHT22;11018;51.258;6.806;2024-01-07T07:32:10;3.10;58.20
4354;DHT22;11018;51.258;6.806;2024-01-07T07:34:36;3.10;58.00
4354;DHT22;11018;51.258;6.806;2024-01-07T07:37:02;3.00;56.70
4354;DHT22;11018;51.258;6.806;2024-01-07T07:39:27;2.90;58.40
4354;DHT22;11018;51.258;6.806;2024-01-07T07:41:53;2.90;59.00
4354;DHT22;11018;51.258;6.806;2024-01-07T07:44:19;2.90;58.30
4354;DHT22;11018;51.258;6.806;2024-01-07T07:46:44;2.90;59.00
4354;DHT22;11018;51.258;6.806;2024-01-07T07:49:10;2.90;60.30
4354;DHT22;11018;51.258;6.806;2024-01-07T07:51:36;2.90;58.90
4354;DHT22;11018;51.258;6.806;2024-01-07T07:54:02;3.00;58.30
4354;DHT22;11018;51.258;6.806;2024-01-07T07:56:28;3.00;58.10
4354;DHT22;11018;51.258;6.806;2024-01-07T07:58:54;2.90;58.60
4354;DHT22;11018;51.258;6.806;2024-01-07T08:01:19;2.90;58.90
4354;DHT22;11018;51.258;6.806;2024-01-07T08:03:45;2.80;58.50
4354;DHT22;11018;51.258;6.806;2024-01-07T08:06:12;2.70;59.70
4354;DHT22;11018;51.258;6.806;2024-01-07T08:08:38;2.60;59.50
4354;DHT22;11018;51.258;6.806;2024-01-07T08:11:04;2.60;60.90
4354;DHT22;11018;51.258;6.806;2024-01-07T08:13:35;2.70;62.10
4354;DHT22;11018;51.258;6.806;2024-01-07T08:16:01;2.80;60.20
4354;DHT22;11018;51.258;6.806;2024-01-07T08:18:26;2.70;60.10
4354;DHT22;11018;51.258;6.806;2024-01-07T08:20:52;2.80;60.20
4354;DHT22;11018;51.258;6.806;2024-01-07T08:23:17;2.80;59.30
4354;DHT22;11018;51.258;6.806;2024-01-07T08:25:43;2.80;59.30
4354;DHT22;11018;51.258;6.806;2024-01-07T08:28:10;2.80;58.60
4354;DHT22;11018;51.258;6.806;2024-01-07T08:30:36;2.80;57.60
4354;DHT22;11018;51.258;6.806;2024-01-07T08:33:01;2.80;57.20
4354;DHT22;11018;51.258;6.806;2024-01-07T08:35:27;2.80;57.20
4354;DHT22;11018;51.258;6.806;2024-01-07T08:37:52;2.70;57.40
4354;DHT22;11018;51.258;6.806;2024-01-07T08:40:18;2.70;57.20
4354;DHT22;11018;51.258;6.806;2024-01-07T08:42:44;2.80;58.00
4354;DHT22;11018;51.258;6.806;2024-01-07T08:45:10;2.80;56.50
4354;DHT22;11018;51.258;6.806;2024-01-07T08:47:36;2.80;56.30
4354;DHT22;11018;51.258;6.806;2024-01-07T08:50:03;2.90;57.80
4354;DHT22;11018;51.258;6.806;2024-01-07T08:52:28;2.90;55.90
4354;DHT22;11018;51.258;6.806;2024-01-07T08:54:54;2.90;54.30
4354;DHT22;11018;51.258;6.806;2024-01-07T08:57:20;2.80;53.30
4354;DHT22;11018;51.258;6.806;2024-01-07T08:59:46;2.80;53.90
4354;DHT22;11018;51.258;6.806;2024-01-07T09:02:11;2.80;54.20
4354;DHT22;11018;51.258;6.806;2024-01-07T09:04:37;2.80;55.10
4354;DHT22;11018;51.258;6.806;2024-01-07T09:07:03;2.80;54.80
4354;DHT22;11018;51.258;6.806;2024-01-07T09:09:29;2.90;55.70
4354;DHT22;11018;51.258;6.806;2024-01-07T09:11:54;2.90;56.10
4354;DHT22;11018;51.258;6.806;2024-01-07T09:14:22;3.10;56.20
4354;DHT22;11018;51.258;6.806;2024-01-07T09:16:47;3.20;53.60
4354;DHT22;11018;51.258;6.806;2024-01-07T09:19:13;3.20;51.60
4354;DHT22;11018;51.258;6.806;2024-01-07T09:21:39;3.10;52.40
4354;DHT22;11018;51.258;6.806;2024-01-07T09:24:04;3.10;52.20
4354;DHT22;11018;51.258;6.806;2024-01-07T09:26:30;3.10;50.80
4354;DHT22;11018;51.258;6.806;2024-01-07T09:28:56;3.00;49.70
4354;DHT22;11018;51.258;6.806;2024-01-07T09:31:22;3.00;50.60
4354;DHT22;11018;51.258;6.806;2024-01-07T09:33:47;3.00;50.50
4354;DHT22;11018;51.258;6.806;2024-01-07T09:36:13;3.00;50.70
4354;DHT22;11018;51.258;6.806;2024-01-07T09:38:40;3.00;51.30
4354;DHT22;11018;51.258;6.806;2024-01-07T09:41:05;3.10;50.60
4354;DHT22;11018;51.258;6.806;2024-01-07T09:43:31;3.10;51.10
4354;DHT22;11018;51.258;6.806;2024-01-07T09:45:57;3.10;51.10
4354;DHT22;11018;51.258;6.806;2024-01-07T09:48:24;3.10;50.00
4354;DHT22;11018;51.258;6.806;2024-01-07T09:50:51;3.10;50.00
4354;DHT22;11018;51.258;6.806;2024-01-07T09:53:20;3.10;50.90
4354;DHT22;11018;51.258;6.806;2024-01-07T09:56:20;3.10;49.90
4354;DHT22;11018;51.258;6.806;2024-01-07T09:58:48;3.00;49.30
4354;DHT22;11018;51.258;6.806;2024-01-07T10:01:17;2.90;50.10
4354;DHT22;11018;51.258;6.806;2024-01-07T10:03:43;3.00;50.90
4354;DHT22;11018;51.258;6.806;2024-01-07T10:06:10;3.00;51.70
4354;DHT22;11018;51.258;6.806;2024-01-07T10:08:36;2.90;50.90
4354;DHT22;11018;51.258;6.806;2024-01-07T10:11:02;2.90;51.30
4354;DHT22;11018;51.258;6.806;2024-01-07T10:13:28;2.90;50.50
4354;DHT22;11018;51.258;6.806;2024-01-07T10:15:54;2.90;49.40
4354;DHT22;11018;51.258;6.806;2024-01-07T10:18:20;2.80;50.00
4354;DHT22;11018;51.258;6.806;2024-01-07T10:20:45;2.70;51.00
4354;DHT22;11018;51.258;6.806;2024-01-07T10:23:11;2.70;50.20
4354;DHT22;11018;51.258;6.806;2024-01-07T10:25:37;2.80;49.90
4354;DHT22;11018;51.258;6.806;2024-01-07T10:28:03;2.70;51.20
4354;DHT22;11018;51.258;6.806;2024-01-07T10:30:31;2.80;50.90
4354;DHT22;11018;51.258;6.806;2024-01-07T10:32:58;2.90;51.80
4354;DHT22;11018;51.258;6.806;2024-01-07T10:35:34;2.90;48.70
4354;DHT22;11018;51.258;6.806;2024-01-07T10:38:01;2.80;48.50
4354;DHT22;11018;51.258;6.806;2024-01-07T10:40:27;2.90;48.60
4354;DHT22;11018;51.258;6.806;2024-01-07T10:42:55;2.80;49.50
4354;DHT22;11018;51.258;6.806;2024-01-07T10:45:21;2.70;49.90
4354;DHT22;11018;51.258;6.806;2024-01-07T10:47:51;2.80;49.00
4354;DHT22;11018;51.258;6.806;2024-01-07T10:50:20;2.80;49.10
4354;DHT22;11018;51.258;6.806;2024-01-07T10:52:49;2.70;50.00
4354;DHT22;11018;51.258;6.806;2024-01-07T10:55:18;2.70;50.60
4354;DHT22;11018;51.258;6.806;2024-01-07T10:57:48;2.90;49.70
4354;DHT22;11018;51.258;6.806;2024-01-07T11:00:16;2.90;48.00
4354;DHT22;11018;51.258;6.806;2024-01-07T11:03:05;2.90;48.60
4354;DHT22;11018;51.258;6.806;2024-01-07T11:05:56;2.90;48.00
4354;DHT22;11018;51.258;6.806;2024-01-07T11:08:39;2.90;48.70
4354;DHT22;11018;51.258;6.806;2024-01-07T11:11:16;2.90;47.80
4354;DHT22;11018;51.258;6.806;2024-01-07T11:13:43;2.90;47.40
4354;DHT22;11018;51.258;6.806;2024-01-07T11:16:10;2.90;49.20
4354;DHT22;11018;51.258;6.806;2024-01-07T11:18:45;2.90;48.20
4354;DHT22;11018;51.258;6.806;2024-01-07T11:21:11;3.00;47.10
4354;DHT22;11018;51.258;6.806;2024-01-07T11:23:45;2.90;45.50
4354;DHT22;11018;51.258;6.806;2024-01-07T11:26:12;2.80;47.30
4354;DHT22;11018;51.258;6.806;2024-01-07T11:28:54;2.70;48.00
4354;DHT22;11018;51.258;6.806;2024-01-07T11:34:07;2.90;46.80
4354;DHT22;11018;51.258;6.806;2024-01-07T11:36:35;2.80;47.00
4354;DHT22;11018;51.258;6.806;2024-01-07T11:39:02;2.90;47.40
4354;DHT22;11018;51.258;6.806;2024-01-07T11:41:32;2.90;47.30
4354;DHT22;11018;51.258;6.806;2024-01-07T11:43:59;2.90;45.70
4354;DHT22;11018;51.258;6.806;2024-01-07T11:46:26;3.00;46.50
4354;DHT22;11018;51.258;6.806;2024-01-07T11:48:56;3.00;48.80
4354;DHT22;11018;51.258;6.806;2024-01-07T11:51:25;3.00;51.20
4354;DHT22;11018;51.258;6.806;2024-01-07T11:53:51;3.00;48.30
4354;DHT22;11018;51.258;6.806;2024-01-07T11:56:18;2.90;46.40
4354;DHT22;11018;51.258;6.806;2024-01-07T11:58:43;2.90;48.70
4354;DHT22;11018;51.258;6.806;2024-01-07T12:01:09;2.90;51.00
4354;DHT22;11018;51.258;6.806;2024-01-07T12:03:34;3.00;50.80
4354;DHT22;11018;51.258;6.806;2024-01-07T12:06:00;3.10;50.10
4354;DHT22;11018;51.258;6.806;2024-01-07T12:08:26;3.10;50.30
4354;DHT22;11018;51.258;6.806;2024-01-07T12:10:51;3.10;50.00
4354;DHT22;11018;51.258;6.806;2024-01-07T12:13:17;3.20;49.00
4354;DHT22;11018;51.258;6.806;2024-01-07T12:15:43;3.20;46.00
4354;DHT22;11018;51.258;6.806;2024-01-07T12:18:09;3.30;45.30
4354;DHT22;11018;51.258;6.806;2024-01-07T12:20:35;3.20;44.40
4354;DHT22;11018;51.258;6.806;2024-01-07T12:23:07;3.10;44.00
4354;DHT22;11018;51.258;6.806;2024-01-07T12:25:34;3.10;44.50
4354;DHT22;11018;51.258;6.806;2024-01-07T12:28:00;3.10;43.20
4354;DHT22;11018;51.258;6.806;2024-01-07T12:30:26;3.10;43.60
4354;DHT22;11018;51.258;6.806;2024-01-07T12:32:53;3.10;42.90
4354;DHT22;11018;51.258;6.806;2024-01-07T12:35:18;3.00;43.50
4354;DHT22;11018;51.258;6.806;2024-01-07T12:37:44;2.90;42.10
4354;DHT22;11018;51.258;6.806;2024-01-07T12:40:11;2.80;42.40
4354;DHT22;11018;51.258;6.806;2024-01-07T12:42:38;2.70;43.60
4354;DHT22;11018;51.258;6.806;2024-01-07T12:45:06;2.70;40.40
4354;DHT22;11018;51.258;6.806;2024-01-07T12:47:31;2.70;39.90
4354;DHT22;11018;51.258;6.806;2024-01-07T12:49:57;2.70;40.20
4354;DHT22;11018;51.258;6.806;2024-01-07T12:52:24;2.80;39.60
4354;DHT22;11018;51.258;6.806;2024-01-07T12:54:49;2.80;41.80
4354;DHT22;11018;51.258;6.806;2024-01-07T12:57:15;2.80;39.30
4354;DHT22;11018;51.258;6.806;2024-01-07T12:59:40;2.70;38.70
4354;DHT22;11018;51.258;6.806;2024-01-07T13:02:06;2.70;40.90
4354;DHT22;11018;51.258;6.806;2024-01-07T13:04:31;2.60;39.10
4354;DHT22;11018;51.258;6.806;2024-01-07T13:06:57;2.60;38.20
4354;DHT22;11018;51.258;6.806;2024-01-07T13:09:22;2.50;36.20
4354;DHT22;11018;51.258;6.806;2024-01-07T13:11:48;2.30;37.00
4354;DHT22;11018;51.258;6.806;2024-01-07T13:14:13;2.20;38.20
4354;DHT22;11018;51.258;6.806;2024-01-07T13:16:39;2.20;37.30
4354;DHT22;11018;51.258;6.806;2024-01-07T13:19:04;2.20;37.20
4354;DHT22;11018;51.258;6.806;2024-01-07T13:21:30;2.20;38.10
4354;DHT22;11018;51.258;6.806;2024-01-07T13:23:56;2.30;38.60
4354;DHT22;11018;51.258;6.806;2024-01-07T13:26:25;2.30;38.40
4354;DHT22;11018;51.258;6.806;2024-01-07T13:28:51;2.30;38.00
4354;DHT22;11018;51.258;6.806;2024-01-07T13:31:16;2.30;38.60
4354;DHT22;11018;51.258;6.806;2024-01-07T13:33:42;2.20;38.40
4354;DHT22;11018;51.258;6.806;2024-01-07T13:36:07;2.30;37.30
4354;DHT22;11018;51.258;6.806;2024-01-07T13:38:36;2.30;37.80
4354;DHT22;11018;51.258;6.806;2024-01-07T13:41:04;2.20;38.40
4354;DHT22;11018;51.258;6.806;2024-01-07T13:43:29;2.20;36.70
4354;DHT22;11018;51.258;6.806;2024-01-07T13:45:55;2.10;35.90
4354;DHT22;11018;51.258;6.806;2024-01-07T13:48:21;2.00;37.00
4354;DHT22;11018;51.258;6.806;2024-01-07T13:50:47;2.00;35.90
4354;DHT22;11018;51.258;6.806;2024-01-07T13:53:15;1.90;36.40
4354;DHT22;11018;51.258;6.806;2024-01-07T13:55:40;1.90;37.00
4354;DHT22;11018;51.258;6.806;2024-01-07T13:58:06;2.00;36.40
4354;DHT22;11018;51.258;6.806;2024-01-07T14:00:31;1.80;35.00
4354;DHT22;11018;51.258;6.806;2024-01-07T14:02:57;1.80;35.20
4354;DHT22;11018;51.258;6.806;2024-01-07T14:05:23;1.70;36.60
4354;DHT22;11018;51.258;6.806;2024-01-07T14:07:48;1.70;35.80
4354;DHT22;11018;51.258;6.806;2024-01-07T14:10:14;1.80;36.90
4354;DHT22;11018;51.258;6.806;2024-01-07T14:12:39;1.80;35.70
4354;DHT22;11018;51.258;6.806;2024-01-07T14:15:06;1.90;36.70
4354;DHT22;11018;51.258;6.806;2024-01-07T14:17:32;1.90;35.50
4354;DHT22;11018;51.258;6.806;2024-01-07T14:19:57;1.90;35.70
4354;DHT22;11018;51.258;6.806;2024-01-07T14:22:23;1.80;35.50
4354;DHT22;11018;51.258;6.806;2024-01-07T14:24:49;1.80;34.40
4354;DHT22;11018;51.258;6.806;2024-01-07T14:27:18;1.80;34.70
4354;DHT22;11018;51.258;6.806;2024-01-07T14:29:44;1.80;36.10
4354;DHT22;11018;51.258;6.806;2024-01-07T14:32:10;1.90;36.00
4354;DHT22;11018;51.258;6.806;2024-01-07T14:34:38;2.00;35.90
4354;DHT22;11018;51.258;6.806;2024-01-07T14:37:05;1.90;33.10
4354;DHT22;11018;51.258;6.806;2024-01-07T14:39:30;1.90;32.90
4354;DHT22;11018;51.258;6.806;2024-01-07T14:41:56;1.90;34.60
4354;DHT22;11018;51.258;6.806;2024-01-07T14:44:21;1.90;33.30
4354;DHT22;11018;51.258;6.806;2024-01-07T14:46:47;1.90;34.50
4354;DHT22;11018;51.258;6.806;2024-01-07T14:49:13;1.90;33.50
4354;DHT22;11018;51.258;6.806;2024-01-07T14:51:39;2.00;33.80
4354;DHT22;11018;51.258;6.806;2024-01-07T14:54:04;2.00;34.70
4354;DHT22;11018;51.258;6.806;2024-01-07T14:56:30;2.00;33.70
4354;DHT22;11018;51.258;6.806;2024-01-07T14:58:55;2.00;33.70
4354;DHT22;11018;51.258;6.806;2024-01-07T15:01:21;2.00;33.40
4354;DHT22;11018;51.258;6.806;2024-01-07T15:03:46;2.10;34.80
4354;DHT22;11018;51.258;6.806;2024-01-07T15:06:12;2.10;33.10
4354;DHT22;11018;51.258;6.806;2024-01-07T15:08:41;2.20;34.20
4354;DHT22;11018;51.258;6.806;2024-01-07T15:11:06;2.20;33.80
4354;DHT22;11018;51.258;6.806;2024-01-07T15:13:32;2.20;33.00
4354;DHT22;11018;51.258;6.806;2024-01-07T15:15:59;2.20;35.20
4354;DHT22;11018;51.258;6.806;2024-01-07T15:18:25;2.10;34.90
4354;DHT22;11018;51.258;6.806;2024-01-07T15:20:50;2.10;36.40
4354;DHT22;11018;51.258;6.806;2024-01-07T15:23:17;2.20;36.80
4354;DHT22;11018;51.258;6.806;2024-01-07T15:25:43;2.20;32.70
4354;DHT22;11018;51.258;6.806;2024-01-07T15:28:08;2.20;36.70
4354;DHT22;11018;51.258;6.806;2024-01-07T15:30:34;2.20;35.10
4354;DHT22;11018;51.258;6.806;2024-01-07T15:32:59;2.10;35.30
4354;DHT22;11018;51.258;6.806;2024-01-07T15:35:25;2.20;35.00
4354;DHT22;11018;51.258;6.806;2024-01-07T15:37:50;2.10;34.50
4354;DHT22;11018;51.258;6.806;2024-01-07T15:40:16;2.10;33.40
4354;DHT22;11018;51.258;6.806;2024-01-07T15:42:42;2.00;33.30
4354;DHT22;11018;51.258;6.806;2024-01-07T15:45:07;1.90;34.40
4354;DHT22;11018;51.258;6.806;2024-01-07T15:47:34;2.00;32.10
4354;DHT22;11018;51.258;6.806;2024-01-07T15:50:00;2.00;32.70
4354;DHT22;11018;51.258;6.806;2024-01-07T15:52:26;2.00;33.60
4354;DHT22;11018;51.258;6.806;2024-01-07T15:54:53;2.00;32.60
4354;DHT22;11018;51.258;6.806;2024-01-07T15:57:18;1.90;31.90
4354;DHT22;11018;51.258;6.806;2024-01-07T15:59:44;1.90;32.50